Andrew Antrainer — WDI5303 — position and weather

sailwx.info

Track history (hours):
 
Tides and Currents Weather Stations Pressure Air Temp Water Temp Dewpoint Dewpoint Depression Visibility Wind Speed Wind Dir Waves Ship Positions

Andrew Antrainer

Owner: Florida Marine,LLC, Mandeville, LA. More information available from US FCC via Universal Licensing System and Coast Guard Vessel Documentation Center.

Last reported at 2018-May-01 15:01 UTC. Time now 2018-Jun-22 05:43 UTC.
Position N 32°40' W 091°07'.
Warning: this ship's position is 51 days out of date.

Length 37 m; draft 3.2 m.

Type: Other ship. MMSI: 367707210.

Date/timePositionNaut miles runAvg speedWind from/ knotsBaromVisibWave heightAir tempDewpointWater temp
2018-May-01 15:01N 32°40' W 091°07'4 5.3
2018-May-01 14:17N 32°37' W 091°09'1 5.3
2018-May-01 14:00N 32°36' W 091°08'2 4.7
2018-May-01 13:30N 32°33' W 091°07'3 5.2
2018-May-01 12:56N 32°30' W 091°07'2 4.6
2018-May-01 12:30N 32°28' W 091°06'3 5.1
2018-May-01 12:00N 32°27' W 091°04'2 4.8
2018-May-01 11:30N 32°26' W 091°01'2 4.5
2018-May-01 11:00N 32°24' W 090°60'2 5.0
2018-May-01 10:30N 32°22' W 091°00'2 4.4
2018-May-01 10:00N 32°21' W 090°58'2 4.2
2018-May-01 09:30N 32°21' W 090°55'0 0.1
2018-May-01 09:00N 32°21' W 090°55'0 0.0
2018-May-01 08:29N 32°21' W 090°55'1 3.0
2018-May-01 08:00N 32°20' W 090°54'2 4.6
2018-May-01 07:30N 32°18' W 090°56'2 4.4
2018-May-01 06:59N 32°16' W 090°57'3 5.3
2018-May-01 06:30N 32°14' W 090°59'3 5.3
2018-May-01 06:00N 32°11' W 090°60'2 4.7
2018-May-01 05:29N 32°09' W 091°00'2 4.1
2018-May-01 05:00N 32°07' W 091°02'2 4.3
2018-May-01 04:30N 32°08' W 091°04'2 4.0
2018-May-01 04:00N 32°06' W 091°06'2 3.2
2018-May-01 03:29N 32°05' W 091°05'4 5.1
2018-May-01 02:42N 32°01' W 091°05'0 0.0
2018-Apr-29 20:11N 32°01' W 091°05'310.6
2018-Apr-29 19:57N 32°03' W 091°03'4 8.5
2018-Apr-29 19:30N 32°06' W 091°06'3 5.3
2018-Apr-29 19:00N 32°07' W 091°03'4 7.9
2018-Apr-29 18:30N 32°10' W 090°60'510.1
2018-Apr-29 18:00N 32°15' W 090°59'510.1
2018-Apr-29 17:30N 32°19' W 090°54'4 7.4
2018-Apr-29 17:00N 32°21' W 090°58'4 7.2
2018-Apr-29 16:30N 32°24' W 090°59'5 9.2
2018-Apr-29 16:00N 32°27' W 091°04'4 8.8
2018-Apr-29 15:30N 32°30' W 091°07'9 9.0
2018-Apr-29 14:29N 32°40' W 091°08'  
2018-Apr-26 21:10N 38°40' W 090°11'1 4.7
2018-Apr-26 20:59N 38°41' W 090°11'1 1.4
2018-Apr-26 20:16N 38°42' W 090°11'0 0.6
2018-Apr-26 19:58N 38°42' W 090°11'2 3.5
2018-Apr-26 19:26N 38°44' W 090°10'4 4.1
2018-Apr-26 18:26N 38°48' W 090°07'3 7.4
2018-Apr-26 18:00N 38°51' W 090°06'2 3.2
2018-Apr-26 17:14N 38°52' W 090°09'0 0.7
2018-Apr-26 17:00N 38°52' W 090°09'0 0.9
2018-Apr-26 16:28N 38°53' W 090°10'2 5.1
2018-Apr-26 16:00N 38°54' W 090°12'3 6.5
2018-Apr-26 15:30N 38°55' W 090°16'3 6.2
2018-Apr-26 15:00N 38°56' W 090°20'3 5.4
2018-Apr-26 14:30N 38°57' W 090°23'3 6.4
2018-Apr-26 14:00N 38°58' W 090°27'3 5.2
2018-Apr-26 13:30N 38°58' W 090°30'2 4.8
2018-Apr-26 13:00N 38°58' W 090°33'3 6.0
2018-Apr-26 12:30N 39°01' W 090°34'2 4.6
2018-Apr-26 11:58N 39°04' W 090°35'3 5.7
2018-Apr-26 11:30N 39°06' W 090°36'4 6.6
2018-Apr-26 10:53N 39°10' W 090°37'  
Track history (hours):
 
Tides and Currents Weather Stations Pressure Air Temp Water Temp Dewpoint Dewpoint Depression Visibility Wind Speed Wind Dir Waves Ship Positions

Andrew Antrainer

Owner: Florida Marine,LLC, Mandeville, LA. More information available from US FCC via Universal Licensing System and Coast Guard Vessel Documentation Center.

Last reported at 2018-May-01 15:01 UTC. Time now 2018-Jun-22 05:43 UTC.
Position N 32°40' W 091°07'.
Warning: this ship's position is 51 days out of date.

Length 37 m; draft 3.2 m.

Type: Other ship. MMSI: 367707210.

Date/timePositionNaut miles runAvg speedWind from/ knotsBaromVisibWave heightAir tempDewpointWater temp
2018-May-01 15:01N 32°40' W 091°07'4 5.3
2018-May-01 14:17N 32°37' W 091°09'1 5.3
2018-May-01 14:00N 32°36' W 091°08'2 4.7
2018-May-01 13:30N 32°33' W 091°07'3 5.2
2018-May-01 12:56N 32°30' W 091°07'2 4.6
2018-May-01 12:30N 32°28' W 091°06'3 5.1
2018-May-01 12:00N 32°27' W 091°04'2 4.8
2018-May-01 11:30N 32°26' W 091°01'2 4.5
2018-May-01 11:00N 32°24' W 090°60'2 5.0
2018-May-01 10:30N 32°22' W 091°00'2 4.4
2018-May-01 10:00N 32°21' W 090°58'2 4.2
2018-May-01 09:30N 32°21' W 090°55'0 0.1
2018-May-01 09:00N 32°21' W 090°55'0 0.0
2018-May-01 08:29N 32°21' W 090°55'1 3.0
2018-May-01 08:00N 32°20' W 090°54'2 4.6
2018-May-01 07:30N 32°18' W 090°56'2 4.4
2018-May-01 06:59N 32°16' W 090°57'3 5.3
2018-May-01 06:30N 32°14' W 090°59'3 5.3
2018-May-01 06:00N 32°11' W 090°60'2 4.7
2018-May-01 05:29N 32°09' W 091°00'2 4.1
2018-May-01 05:00N 32°07' W 091°02'2 4.3
2018-May-01 04:30N 32°08' W 091°04'2 4.0
2018-May-01 04:00N 32°06' W 091°06'2 3.2
2018-May-01 03:29N 32°05' W 091°05'4 5.1
2018-May-01 02:42N 32°01' W 091°05'0 0.0
2018-Apr-29 20:11N 32°01' W 091°05'310.6
2018-Apr-29 19:57N 32°03' W 091°03'4 8.5
2018-Apr-29 19:30N 32°06' W 091°06'3 5.3
2018-Apr-29 19:00N 32°07' W 091°03'4 7.9
2018-Apr-29 18:30N 32°10' W 090°60'510.1
2018-Apr-29 18:00N 32°15' W 090°59'510.1
2018-Apr-29 17:30N 32°19' W 090°54'4 7.4
2018-Apr-29 17:00N 32°21' W 090°58'4 7.2
2018-Apr-29 16:30N 32°24' W 090°59'5 9.2
2018-Apr-29 16:00N 32°27' W 091°04'4 8.8
2018-Apr-29 15:30N 32°30' W 091°07'9 9.0
2018-Apr-29 14:29N 32°40' W 091°08'  
2018-Apr-26 21:10N 38°40' W 090°11'1 4.7
2018-Apr-26 20:59N 38°41' W 090°11'1 1.4
2018-Apr-26 20:16N 38°42' W 090°11'0 0.6
2018-Apr-26 19:58N 38°42' W 090°11'2 3.5
2018-Apr-26 19:26N 38°44' W 090°10'4 4.1
2018-Apr-26 18:26N 38°48' W 090°07'3 7.4
2018-Apr-26 18:00N 38°51' W 090°06'2 3.2
2018-Apr-26 17:14N 38°52' W 090°09'0 0.7
2018-Apr-26 17:00N 38°52' W 090°09'0 0.9
2018-Apr-26 16:28N 38°53' W 090°10'2 5.1
2018-Apr-26 16:00N 38°54' W 090°12'3 6.5
2018-Apr-26 15:30N 38°55' W 090°16'3 6.2
2018-Apr-26 15:00N 38°56' W 090°20'3 5.4
2018-Apr-26 14:30N 38°57' W 090°23'3 6.4
2018-Apr-26 14:00N 38°58' W 090°27'3 5.2
2018-Apr-26 13:30N 38°58' W 090°30'2 4.8
2018-Apr-26 13:00N 38°58' W 090°33'3 6.0
2018-Apr-26 12:30N 39°01' W 090°34'2 4.6
2018-Apr-26 11:58N 39°04' W 090°35'3 5.7
2018-Apr-26 11:30N 39°06' W 090°36'4 6.6
2018-Apr-26 10:53N 39°10' W 090°37'  

Dump ship's entire track history